Time;durP1;ratioP1;P1;durP2;ratioP2;P2;SDS_P1;SDS_P2;PMS_P1;PMS_P2;Temp;Humidity;BMP_temperature;BMP_pressure;BME280_temperature;BME280_humidity;BME280_pressure;Samples;Min_cycle;Max_cycle;Signal;HPM_P1;HPM_P2
2023/08/18 00:06:58;;;;;;;11.60;8.25;;;;;;;21.71;75.55;101374.81;15665149;28;20049;-51
2023/08/18 00:14:33;;;;;;;10.95;8.15;;;;;;;22.00;74.14;101369.66;15696042;28;20044;-49
2023/08/18 00:22:09;;;;;;;12.32;8.05;;;;;;;20.90;78.45;101359.69;15743734;28;20041;-52
2023/08/18 00:29:45;;;;;;;12.98;8.35;;;;;;;20.94;77.87;101349.03;15725612;28;20132;-53
2023/08/18 00:37:19;;;;;;;10.05;7.97;;;;;;;20.53;78.55;101336.00;15708483;28;20060;-50
2023/08/18 00:44:54;;;;;;;13.10;7.90;;;;;;;20.95;77.03;101337.88;15725290;28;20452;-50
2023/08/18 00:52:27;;;;;;;14.07;8.38;;;;;;;21.06;76.23;101346.94;15724416;28;20519;-50
2023/08/18 01:00:02;;;;;;;13.35;8.98;;;;;;;21.03;76.96;101339.28;15725400;28;20036;-49
2023/08/18 01:07:36;;;;;;;11.77;9.23;;;;;;;21.60;74.24;101343.91;15724162;28;20505;-51
2023/08/18 01:15:18;;;;;;;14.82;9.38;;;;;;;21.68;73.33;101339.81;15705082;28;20048;-53
2023/08/18 01:22:56;;;;;;;12.35;9.63;;;;;;;21.45;74.16;101338.38;15662203;28;20131;-50
2023/08/18 01:30:36;;;;;;;16.13;10.68;;;;;;;20.91;76.23;101349.59;15661505;28;20041;-50
2023/08/18 01:38:13;;;;;;;11.82;10.23;;;;;;;21.10;75.83;101350.78;15679001;28;20048;-51
2023/08/18 01:45:46;;;;;;;17.40;10.57;;;;;;;21.39;74.28;101357.47;15663263;28;20094;-52
2023/08/18 01:53:22;;;;;;;16.63;11.80;;;;;;;21.28;74.86;101358.50;15663663;28;20452;-51
2023/08/18 02:00:56;;;;;;;14.65;10.05;;;;;;;21.44;74.63;101366.78;15648734;28;20052;-52
2023/08/18 02:08:31;;;;;;;14.25;11.18;;;;;;;21.32;74.73;101367.03;15677230;28;20686;-51
2023/08/18 02:16:04;;;;;;;14.32;12.30;;;;;;;21.49;74.64;101351.22;15718935;28;20098;-48
2023/08/18 02:23:39;;;;;;;16.58;12.35;;;;;;;21.42;75.10;101356.13;15733764;28;20501;-50
2023/08/18 02:31:12;;;;;;;14.10;11.23;;;;;;;21.27;75.26;101348.69;15732733;28;20048;-51
2023/08/18 02:38:46;;;;;;;18.35;12.18;;;;;;;21.41;74.62;101351.78;15732201;28;20033;-49
2023/08/18 02:46:19;;;;;;;15.93;13.35;;;;;;;21.31;75.55;101354.44;15732011;28;20512;-51
2023/08/18 02:53:54;;;;;;;17.42;12.27;;;;;;;21.44;74.63;101355.88;15731598;28;20058;-50
2023/08/18 03:01:27;;;;;;;15.75;13.48;;;;;;;21.44;74.69;101353.13;15731553;28;20049;-49
2023/08/18 03:09:03;;;;;;;15.52;13.02;;;;;;;21.41;74.50;101356.41;15737489;22;20045;-58
2023/08/18 03:16:36;;;;;;;17.08;13.30;;;;;;;21.29;74.86;101356.59;15700214;28;20143;-58
2023/08/18 03:24:10;;;;;;;17.48;13.90;;;;;;;21.31;74.84;101349.84;15806384;28;20124;-58
2023/08/18 03:31:43;;;;;;;21.88;15.02;;;;;;;21.39;74.70;101359.41;15794108;28;20440;-56
2023/08/18 03:39:21;;;;;;;23.88;14.80;;;;;;;21.06;75.53;101361.41;15792411;28;20048;-56
2023/08/18 03:46:56;;;;;;;18.73;13.95;;;;;;;21.00;75.76;101365.19;15790918;28;20776;-60
2023/08/18 03:54:31;;;;;;;20.55;15.00;;;;;;;20.79;76.92;101371.59;15790765;28;20060;-55
2023/08/18 04:02:04;;;;;;;20.95;16.08;;;;;;;20.42;79.06;101377.03;15789968;28;20143;-57
2023/08/18 04:09:42;;;;;;;20.60;16.42;;;;;;;20.84;77.20;101377.09;15790350;28;20127;-58
2023/08/18 04:17:16;;;;;;;21.55;17.13;;;;;;;20.59;78.50;101378.56;15735476;28;20068;-57
2023/08/18 04:24:53;;;;;;;24.80;18.98;;;;;;;20.92;77.37;101390.25;15742711;28;20052;-58
2023/08/18 04:32:27;;;;;;;27.88;18.98;;;;;;;20.92;77.37;101392.97;15709098;28;20052;-56
2023/08/18 04:40:03;;;;;;;24.20;19.33;;;;;;;20.37;79.45;101396.91;15725487;28;20086;-55
2023/08/18 04:47:38;;;;;;;23.40;19.70;;;;;;;20.79;78.33;101399.72;15708185;28;20534;-58
2023/08/18 04:55:14;;;;;;;23.95;19.00;;;;;;;21.25;76.53;101393.72;15724496;28;20032;-57
2023/08/18 05:02:47;;;;;;;26.58;19.45;;;;;;;21.46;75.68;101391.94;15723860;28;20111;-55
2023/08/18 05:10:22;;;;;;;26.02;18.98;;;;;;;21.65;75.58;101406.75;15740438;28;20558;-56
2023/08/18 05:17:55;;;;;;;23.13;16.33;;;;;;;21.64;75.37;101413.31;15766707;28;20131;-58
2023/08/18 05:25:29;;;;;;;19.83;16.02;;;;;;;20.86;78.71;101399.50;15786827;28;20427;-56
2023/08/18 05:33:02;;;;;;;22.92;16.90;;;;;;;21.04;79.00;101388.16;15734345;28;20138;-54
2023/08/18 05:40:36;;;;;;;19.15;15.98;;;;;;;21.18;79.25;101385.78;15705297;28;20119;-57
2023/08/18 05:48:09;;;;;;;19.55;16.00;;;;;;;21.82;76.94;101381.94;15721922;28;20509;-58
2023/08/18 05:55:45;;;;;;;21.73;16.45;;;;;;;21.83;76.23;101378.13;15721860;28;20048;-55
2023/08/18 06:03:20;;;;;;;23.40;20.17;;;;;;;21.97;76.27;101379.25;15738987;28;20135;-58
2023/08/18 06:10:56;;;;;;;20.13;16.33;;;;;;;22.32;74.93;101381.22;15740589;28;20055;-57
2023/08/18 06:18:29;;;;;;;18.13;14.63;;;;;;;22.25;74.51;101393.53;15766739;28;20055;-59
2023/08/18 06:26:03;;;;;;;20.60;14.07;;;;;;;22.59;73.62;101405.56;15801835;28;20052;-58
2023/08/18 06:33:37;;;;;;;15.13;13.18;;;;;;;22.63;73.02;101403.09;15784468;28;20055;-59
2023/08/18 06:41:11;;;;;;;21.75;12.90;;;;;;;23.19;71.74;101394.81;15801565;28;20076;-59
2023/08/18 06:48:44;;;;;;;13.02;11.70;;;;;;;22.97;71.88;101400.59;15786768;28;20424;-59
2023/08/18 06:56:19;;;;;;;15.45;11.98;;;;;;;23.08;70.25;101388.56;15813522;28;20071;-57
2023/08/18 07:03:54;;;;;;;13.82;10.52;;;;;;;23.78;69.19;101380.34;15815371;28;20060;-58
2023/08/18 07:11:28;;;;;;;13.50;10.25;;;;;;;24.34;66.30;101381.84;15807144;28;20036;-57
2023/08/18 07:19:01;;;;;;;10.63;9.52;;;;;;;24.53;64.06;101379.22;15730135;28;20072;-59
2023/08/18 07:26:35;;;;;;;10.80;9.13;;;;;;;25.09;62.46;101376.78;15747780;28;20475;-59
2023/08/18 07:34:10;;;;;;;10.70;9.60;;;;;;;25.20;61.71;101369.25;15748033;28;20048;-58
2023/08/18 07:41:45;;;;;;;12.90;9.23;;;;;;;25.38;60.73;101367.66;15729800;28;20516;-59
2023/08/18 07:49:18;;;;;;;11.05;8.50;;;;;;;26.15;59.30;101372.88;15728300;28;20044;-59
2023/08/18 07:56:52;;;;;;;11.18;8.05;;;;;;;25.84;57.75;101375.31;15745699;28;20102;-59
2023/08/18 08:04:26;;;;;;;12.10;8.30;;;;;;;26.59;59.05;101366.94;15709400;28;20045;-58
2023/08/18 08:12:00;;;;;;;9.77;7.95;;;;;;;26.60;57.75;101367.75;15755200;28;20059;-59
2023/08/18 08:19:33;;;;;;;11.38;8.27;;;;;;;26.73;58.48;101366.97;15807217;28;20401;-59
2023/08/18 08:27:08;;;;;;;11.57;7.80;;;;;;;26.89;55.74;101360.03;15788787;28;20070;-58
2023/08/18 08:34:48;;;;;;;10.27;7.35;;;;;;;27.61;53.10;101362.16;15806428;28;20048;-58
2023/08/18 08:42:23;;;;;;;9.95;7.20;;;;;;;27.93;55.19;101363.09;15806486;28;20047;-59
2023/08/18 08:50:02;;;;;;;12.70;7.13;;;;;;;27.87;55.89;101365.16;15805887;28;20409;-58
2023/08/18 08:57:42;;;;;;;12.75;7.47;;;;;;;28.30;55.98;101361.91;15786579;28;20047;-56
2023/08/18 09:05:15;;;;;;;8.57;6.22;;;;;;;28.68;50.36;101356.81;15786084;28;20052;-58
2023/08/18 09:12:51;;;;;;;7.85;6.07;;;;;;;28.91;51.33;101357.59;15786139;28;20059;-55
2023/08/18 09:20:30;;;;;;;6.30;5.70;;;;;;;29.14;51.88;101352.78;15723122;28;20048;-55
2023/08/18 09:28:06;;;;;;;6.43;5.50;;;;;;;29.28;48.38;101341.59;15740466;28;20094;-55
2023/08/18 09:35:39;;;;;;;7.00;4.90;;;;;;;29.40;46.79;101344.56;15722794;28;20045;-58
2023/08/18 09:43:13;;;;;;;7.07;5.30;;;;;;;30.17;49.31;101336.63;15722334;28;20501;-57
2023/08/18 09:50:50;;;;;;;8.45;5.00;;;;;;;30.44;46.62;101336.25;15741356;28;20072;-58
2023/08/18 09:58:32;;;;;;;6.70;4.40;;;;;;;30.60;41.93;101327.41;15739925;28;20049;-58
2023/08/18 10:06:07;;;;;;;4.70;3.90;;;;;;;31.21;41.16;101323.22;15705393;28;20053;-58
2023/08/18 10:13:42;;;;;;;7.63;3.70;;;;;;;31.72;39.37;101317.66;15745679;28;20047;-57
2023/08/18 10:21:15;;;;;;;5.05;3.83;;;;;;;31.32;39.06;101315.34;15802038;28;20055;-57
2023/08/18 10:28:50;;;;;;;4.95;3.72;;;;;;;30.89;40.07;101321.94;15779288;28;20082;-57
2023/08/18 10:36:26;;;;;;;5.03;3.90;;;;;;;31.74;39.88;101309.78;15795587;28;20040;-59
2023/08/18 10:44:00;;;;;;;6.90;3.75;;;;;;;31.85;38.54;101299.09;15813244;28;20044;-55
2023/08/18 10:51:34;;;;;;;4.40;3.88;;;;;;;31.62;39.38;101293.09;15814237;28;20044;-58
2023/08/18 10:59:08;;;;;;;5.32;3.65;;;;;;;31.88;40.07;101287.31;15795873;28;20074;-56
2023/08/18 11:06:42;;;;;;;4.00;3.50;;;;;;;32.47;36.59;101285.06;15794141;28;20040;-54
2023/08/18 11:14:17;;;;;;;5.35;3.80;;;;;;;32.09;38.09;101279.75;15781710;28;20455;-54
2023/08/18 11:21:50;;;;;;;6.78;4.15;;;;;;;32.26;38.41;101267.63;15730415;28;20032;-56
2023/08/18 11:29:27;;;;;;;4.43;3.90;;;;;;;32.31;38.10;101272.97;15729019;28;20040;-58
2023/08/18 11:37:04;;;;;;;6.43;4.10;;;;;;;32.91;37.69;101263.06;15744611;28;20045;-56
2023/08/18 11:44:39;;;;;;;4.60;3.97;;;;;;;32.76;37.12;101266.53;15728775;28;20041;-54
2023/08/18 11:52:13;;;;;;;6.70;4.40;;;;;;;32.53;38.12;101255.06;15728879;28;20097;-57
2023/08/18 11:59:48;;;;;;;6.68;3.95;;;;;;;33.39;36.70;101253.00;15728433;28;20037;-57
2023/08/18 12:07:21;;;;;;;5.43;4.00;;;;;;;33.92;35.14;101258.50;15729056;28;20040;-57
2023/08/18 12:14:55;;;;;;;5.50;4.30;;;;;;;33.48;35.30;101256.50;15762293;28;20043;-55
2023/08/18 12:22:29;;;;;;;6.50;3.70;;;;;;;32.27;37.41;101260.94;15788891;28;20048;-55
2023/08/18 12:30:04;;;;;;;8.15;4.10;;;;;;;32.82;36.46;101255.97;15772407;28;20472;-56
2023/08/18 12:37:38;;;;;;;7.40;4.55;;;;;;;32.95;37.13;101257.63;15787959;28;20087;-57
2023/08/18 12:45:14;;;;;;;5.28;4.60;;;;;;;32.98;36.23;101266.09;15805603;28;20062;-58
2023/08/18 12:52:50;;;;;;;6.05;4.53;;;;;;;34.14;34.59;101263.50;15787345;28;20079;-54
2023/08/18 13:00:27;;;;;;;4.55;3.88;;;;;;;34.34;33.23;101266.38;15787545;28;20032;-58
2023/08/18 13:08:01;;;;;;;4.60;3.97;;;;;;;33.49;34.18;101263.69;15787608;28;20528;-56
2023/08/18 13:15:40;;;;;;;5.88;4.20;;;;;;;33.57;34.50;101275.00;15763941;28;20409;-56
2023/08/18 13:23:13;;;;;;;4.85;3.85;;;;;;;32.90;35.62;101283.69;15741014;28;20149;-55
2023/08/18 13:30:48;;;;;;;6.47;3.85;;;;;;;34.13;34.63;101280.56;15740675;28;20040;-58
2023/08/18 13:38:25;;;;;;;6.85;4.00;;;;;;;35.64;32.48;101258.66;15722478;28;20537;-55
2023/08/18 13:45:59;;;;;;;5.63;3.83;;;;;;;35.55;31.69;101257.28;15740348;28;20471;-58
2023/08/18 13:53:33;;;;;;;5.50;3.92;;;;;;;33.83;33.28;101253.09;15723266;28;20080;-58
2023/08/18 14:01:08;;;;;;;4.75;4.20;;;;;;;32.37;37.53;101249.41;15738967;28;20067;-57
2023/08/18 14:08:41;;;;;;;7.90;5.03;;;;;;;31.34;38.83;101242.91;15721804;28;20082;-57
2023/08/18 14:16:16;;;;;;;5.00;4.47;;;;;;;31.54;39.59;101232.91;15752491;28;20048;-57
2023/08/18 14:23:49;;;;;;;7.07;5.20;;;;;;;32.24;37.87;101228.28;15801881;28;20040;-55
2023/08/18 14:31:24;;;;;;;6.20;4.65;;;;;;;31.54;38.53;101224.59;15785175;28;20044;-56
2023/08/18 14:38:57;;;;;;;6.82;4.80;;;;;;;31.47;38.59;101209.28;15783378;28;20584;-58
2023/08/18 14:46:32;;;;;;;10.27;5.10;;;;;;;31.63;39.04;101212.25;15782690;28;20044;-56
2023/08/18 14:54:05;;;;;;;9.90;5.40;;;;;;;31.74;40.05;101198.75;15800713;28;20095;-55
2023/08/18 15:01:39;;;;;;;7.28;5.40;;;;;;;30.57;41.95;101203.38;15782704;28;20083;-55
2023/08/18 15:09:12;;;;;;;7.03;6.05;;;;;;;31.03;42.52;101194.16;15772689;22;20049;-55
2023/08/18 15:16:47;;;;;;;6.50;5.45;;;;;;;30.30;42.64;101188.84;15718458;28;20404;-52
2023/08/18 15:24:20;;;;;;;6.13;5.50;;;;;;;30.79;41.87;101186.50;15749098;28;20262;-54
2023/08/18 15:31:55;;;;;;;8.43;5.78;;;;;;;30.59;41.33;101182.53;15748181;28;20053;-54
2023/08/18 15:39:28;;;;;;;9.43;5.53;;;;;;;30.81;39.90;101177.84;15747565;28;20071;-52
2023/08/18 15:47:04;;;;;;;8.80;5.63;;;;;;;30.92;39.84;101190.97;15746743;28;20044;-54
2023/08/18 15:54:37;;;;;;;8.23;5.50;;;;;;;31.04;38.83;101193.00;15744983;28;20056;-55
2023/08/18 16:02:13;;;;;;;8.07;5.25;;;;;;;30.77;38.96;101188.78;15745686;28;20051;-54
2023/08/18 16:09:47;;;;;;;6.80;5.57;;;;;;;31.20;40.21;101187.66;15747201;28;20106;-53
2023/08/18 16:17:22;;;;;;;7.57;5.47;;;;;;;31.29;43.00;101190.38;15690193;28;20076;-54
2023/08/18 16:24:55;;;;;;;6.32;5.55;;;;;;;30.55;42.44;101187.09;15664281;28;20136;-55
2023/08/18 16:32:30;;;;;;;8.27;5.95;;;;;;;30.77;43.66;101187.97;15682592;28;20053;-51
2023/08/18 16:40:04;;;;;;;8.07;5.95;;;;;;;30.14;43.72;101183.06;15680276;28;20111;-55
2023/08/18 16:47:39;;;;;;;6.85;5.40;;;;;;;30.27;43.53;101197.84;15679648;28;20581;-55
2023/08/18 16:55:12;;;;;;;6.63;5.97;;;;;;;30.05;44.36;101203.59;15679701;28;20047;-58
2023/08/18 17:02:49;;;;;;;10.15;6.63;;;;;;;29.94;45.75;101200.38;15679789;28;20072;-53
2023/08/18 17:10:22;;;;;;;7.75;6.38;;;;;;;29.63;46.09;101206.13;15680012;28;20055;-53
2023/08/18 17:17:56;;;;;;;7.72;6.90;;;;;;;29.42;49.21;101198.44;15738267;28;20517;-55
2023/08/18 17:25:33;;;;;;;7.78;6.82;;;;;;;28.69;49.14;101203.75;15739892;28;20041;-53
2023/08/18 17:33:07;;;;;;;8.48;7.68;;;;;;;28.23;51.65;101198.69;15718621;28;20098;-55
2023/08/18 17:40:42;;;;;;;8.02;7.22;;;;;;;28.39;51.84;101207.38;15679424;28;20033;-55
2023/08/18 17:48:17;;;;;;;13.77;8.02;;;;;;;28.31;50.66;101208.97;15677914;28;20049;-53
2023/08/18 17:55:50;;;;;;;9.90;8.35;;;;;;;28.10;50.95;101221.66;15676409;28;20045;-51
2023/08/18 18:03:24;;;;;;;9.23;8.05;;;;;;;27.93;51.51;101225.13;15676892;28;20620;-52
2023/08/18 18:10:58;;;;;;;11.07;8.43;;;;;;;27.86;52.10;101239.38;15678658;28;20159;-52
2023/08/18 18:18:32;;;;;;;10.15;8.90;;;;;;;27.78;52.44;101250.38;15738595;28;20046;-53
2023/08/18 18:26:06;;;;;;;10.82;8.45;;;;;;;27.77;53.24;101255.06;15737409;28;20051;-50
2023/08/18 18:33:40;;;;;;;9.82;8.45;;;;;;;27.64;53.84;101251.19;15737854;28;20558;-55
2023/08/18 18:41:14;;;;;;;11.40;8.57;;;;;;;27.19;54.01;101264.94;15737762;28;20497;-55
2023/08/18 18:48:50;;;;;;;9.85;8.85;;;;;;;26.99;54.91;101267.28;15747614;28;20488;-55
2023/08/18 18:56:23;;;;;;;10.80;9.70;;;;;;;26.67;55.24;101274.53;15748066;28;20047;-56
2023/08/18 19:03:58;;;;;;;10.55;9.45;;;;;;;26.58;55.88;101279.13;15748818;28;20493;-53
2023/08/18 19:11:30;;;;;;;12.68;10.18;;;;;;;26.40;56.19;101278.06;15740820;28;20037;-53
2023/08/18 19:19:05;;;;;;;13.15;9.75;;;;;;;26.54;56.01;101283.63;15684533;28;20061;-56
2023/08/18 19:26:40;;;;;;;12.77;10.02;;;;;;;26.06;56.89;101281.13;15685206;28;20049;-56
2023/08/18 19:34:14;;;;;;;13.05;10.25;;;;;;;25.85;57.24;101281.47;15683684;28;20049;-52
2023/08/18 19:41:48;;;;;;;13.43;10.73;;;;;;;26.22;56.56;101273.44;15683553;28;20064;-56
2023/08/18 19:49:23;;;;;;;12.07;9.93;;;;;;;26.94;55.28;101279.22;15685224;28;20045;-55
2023/08/18 19:56:55;;;;;;;11.02;9.80;;;;;;;26.81;56.16;101288.31;15681324;28;20555;-52
2023/08/18 20:04:30;;;;;;;13.32;9.80;;;;;;;25.99;56.62;101280.72;15681619;28;20498;-55
2023/08/18 20:12:04;;;;;;;15.13;10.30;;;;;;;25.52;58.52;101285.28;15691899;28;20044;-52
2023/08/18 20:19:39;;;;;;;14.10;10.90;;;;;;;25.64;58.19;101291.94;15743048;28;20131;-54
2023/08/18 20:27:12;;;;;;;11.73;10.52;;;;;;;25.54;59.14;101294.03;15742346;28;20090;-52
2023/08/18 20:34:46;;;;;;;12.07;10.70;;;;;;;25.30;60.07;101285.84;15742963;28;20051;-56
2023/08/18 20:42:22;;;;;;;14.05;10.48;;;;;;;24.92;61.68;101288.50;15743228;28;20048;-52
2023/08/18 20:50:00;;;;;;;13.63;10.63;;;;;;;25.19;61.38;101283.25;15743471;28;20072;-51
2023/08/18 20:57:34;;;;;;;14.25;10.57;;;;;;;24.89;61.82;101278.09;15743050;28;20412;-50
2023/08/18 21:05:09;;;;;;;16.65;11.00;;;;;;;25.12;61.53;101285.53;15742283;28;20143;-53
2023/08/18 21:12:44;;;;;;;12.20;10.90;;;;;;;24.97;62.37;101285.69;15749244;22;20468;-55
2023/08/18 21:20:18;;;;;;;15.35;10.52;;;;;;;25.18;61.97;101289.88;15800303;28;20047;-57
2023/08/18 21:27:53;;;;;;;15.32;11.40;;;;;;;25.02;62.33;101274.66;15803758;28;20130;-57
2023/08/18 21:35:30;;;;;;;12.15;10.95;;;;;;;25.11;61.89;101272.91;15804782;28;20391;-57
2023/08/18 21:43:04;;;;;;;15.25;12.10;;;;;;;25.35;61.70;101270.09;15852369;28;20041;-55
2023/08/18 21:50:39;;;;;;;14.75;12.38;;;;;;;25.45;60.90;101275.44;15848161;28;20139;-56
2023/08/18 21:58:12;;;;;;;13.57;12.25;;;;;;;25.15;61.91;101267.66;15847619;28;20040;-56
2023/08/18 22:05:46;;;;;;;13.05;11.65;;;;;;;25.08;62.53;101265.25;15848009;28;20048;-56
2023/08/18 22:13:19;;;;;;;14.18;12.63;;;;;;;24.87;62.42;101255.63;15825189;28;20040;-57
2023/08/18 22:20:54;;;;;;;21.17;14.00;;;;;;;24.71;62.79;101251.41;15807614;28;20105;-57
2023/08/18 22:28:28;;;;;;;17.10;12.80;;;;;;;24.49;63.81;101238.22;15792571;28;20122;-56
2023/08/18 22:36:03;;;;;;;14.43;12.93;;;;;;;24.64;63.55;101246.28;15795499;28;20052;-57
2023/08/18 22:43:38;;;;;;;16.73;13.30;;;;;;;24.53;64.27;101242.00;15813166;28;20040;-57
2023/08/18 22:51:12;;;;;;;17.45;12.82;;;;;;;24.36;64.28;101242.44;15795082;28;20151;-57
2023/08/18 22:58:45;;;;;;;17.42;13.38;;;;;;;24.32;64.38;101244.13;15812326;28;20385;-56
2023/08/18 23:06:22;;;;;;;18.35;14.68;;;;;;;23.36;67.96;101254.75;15794524;28;20105;-56
2023/08/18 23:13:56;;;;;;;18.33;14.13;;;;;;;23.99;66.01;101254.06;15806908;28;20044;-56
2023/08/18 23:21:31;;;;;;;16.63;14.73;;;;;;;23.77;66.58;101254.50;15776674;28;20048;-58
2023/08/18 23:29:06;;;;;;;18.88;15.88;;;;;;;23.58;67.12;101249.66;15792825;28;20057;-56
2023/08/18 23:36:41;;;;;;;19.38;15.32;;;;;;;23.41;67.79;101263.78;15808989;28;20048;-57
2023/08/18 23:44:14;;;;;;;17.05;15.27;;;;;;;23.53;67.78;101266.16;15791777;28;20032;-57
2023/08/18 23:51:48;;;;;;;20.20;15.70;;;;;;;23.61;67.09;101253.78;15791935;28;20128;-58
2023/08/18 23:59:21;;;;;;;17.33;15.52;;;;;;;22.85;70.15;101255.00;15790695;28;20036;-56
